sensor_id;sensor_type;location;lat;lon;timestamp;pressure;altitude;pressure_sealevel;temperature;humidity
79368;BME280;68834;53.152;17.962;2023-04-15T00:01:40;100324.38;;;9.60;66.38
79368;BME280;68834;53.152;17.962;2023-04-15T00:04:06;100322.39;;;9.56;66.41
79368;BME280;68834;53.152;17.962;2023-04-15T00:06:33;100326.52;;;9.51;66.37
79368;BME280;68834;53.152;17.962;2023-04-15T00:09:00;100331.11;;;9.50;66.56
79368;BME280;68834;53.152;17.962;2023-04-15T00:11:27;100333.38;;;9.50;66.42
79368;BME280;68834;53.152;17.962;2023-04-15T00:13:54;100332.67;;;9.50;66.71
79368;BME280;68834;53.152;17.962;2023-04-15T00:16:20;100332.31;;;9.51;66.85
79368;BME280;68834;53.152;17.962;2023-04-15T00:18:47;100329.55;;;9.49;66.99
79368;BME280;68834;53.152;17.962;2023-04-15T00:21:14;100326.85;;;9.47;67.23
79368;BME280;68834;53.152;17.962;2023-04-15T00:23:40;100326.19;;;9.44;67.07
79368;BME280;68834;53.152;17.962;2023-04-15T00:26:07;100322.94;;;9.41;67.27
79368;BME280;68834;53.152;17.962;2023-04-15T00:28:34;100316.23;;;9.38;67.28
79368;BME280;68834;53.152;17.962;2023-04-15T00:31:00;100317.86;;;9.36;67.79
79368;BME280;68834;53.152;17.962;2023-04-15T00:33:27;100316.90;;;9.33;67.67
79368;BME280;68834;53.152;17.962;2023-04-15T00:35:54;100315.23;;;9.30;67.52
79368;BME280;68834;53.152;17.962;2023-04-15T00:38:20;100312.66;;;9.28;67.95
79368;BME280;68834;53.152;17.962;2023-04-15T00:40:47;100318.05;;;9.29;68.24
79368;BME280;68834;53.152;17.962;2023-04-15T00:43:14;100318.74;;;9.29;67.82
79368;BME280;68834;53.152;17.962;2023-04-15T00:45:41;100317.72;;;9.28;68.60
79368;BME280;68834;53.152;17.962;2023-04-15T00:48:10;100323.17;;;9.27;68.75
79368;BME280;68834;53.152;17.962;2023-04-15T00:50:37;100325.13;;;9.25;68.44
79368;BME280;68834;53.152;17.962;2023-04-15T00:53:04;100317.68;;;9.24;68.66
79368;BME280;68834;53.152;17.962;2023-04-15T00:55:31;100320.14;;;9.23;68.57
79368;BME280;68834;53.152;17.962;2023-04-15T00:57:58;100320.35;;;9.21;68.75
79368;BME280;68834;53.152;17.962;2023-04-15T01:00:25;100321.27;;;9.20;68.76
79368;BME280;68834;53.152;17.962;2023-04-15T01:02:52;100318.98;;;9.20;68.63
79368;BME280;68834;53.152;17.962;2023-04-15T01:05:19;100315.13;;;9.21;68.83
79368;BME280;68834;53.152;17.962;2023-04-15T01:07:47;100318.55;;;9.24;69.29
79368;BME280;68834;53.152;17.962;2023-04-15T01:10:14;100319.36;;;9.26;69.25
79368;BME280;68834;53.152;17.962;2023-04-15T01:12:41;100319.84;;;9.27;68.80
79368;BME280;68834;53.152;17.962;2023-04-15T01:15:09;100322.05;;;9.30;68.94
79368;BME280;68834;53.152;17.962;2023-04-15T01:17:36;100318.86;;;9.31;68.93
79368;BME280;68834;53.152;17.962;2023-04-15T01:20:07;100318.31;;;9.32;69.21
79368;BME280;68834;53.152;17.962;2023-04-15T01:22:37;100318.48;;;9.32;69.47
79368;BME280;68834;53.152;17.962;2023-04-15T01:25:12;100319.14;;;9.33;69.12
79368;BME280;68834;53.152;17.962;2023-04-15T01:27:42;100319.53;;;9.39;69.08
79368;BME280;68834;53.152;17.962;2023-04-15T01:30:09;100319.53;;;9.45;68.86
79368;BME280;68834;53.152;17.962;2023-04-15T01:32:37;100317.88;;;9.48;68.83
79368;BME280;68834;53.152;17.962;2023-04-15T01:35:04;100321.98;;;9.51;69.08
79368;BME280;68834;53.152;17.962;2023-04-15T01:37:31;100321.96;;;9.52;68.99
79368;BME280;68834;53.152;17.962;2023-04-15T01:39:59;100322.11;;;9.53;68.70
79368;BME280;68834;53.152;17.962;2023-04-15T01:42:25;100317.23;;;9.53;68.96
79368;BME280;68834;53.152;17.962;2023-04-15T01:44:53;100317.41;;;9.52;68.83
79368;BME280;68834;53.152;17.962;2023-04-15T01:47:19;100314.36;;;9.50;68.92
79368;BME280;68834;53.152;17.962;2023-04-15T01:49:47;100317.16;;;9.50;69.03
79368;BME280;68834;53.152;17.962;2023-04-15T01:52:13;100312.11;;;9.50;68.65
79368;BME280;68834;53.152;17.962;2023-04-15T01:54:41;100317.66;;;9.51;69.03
79368;BME280;68834;53.152;17.962;2023-04-15T01:57:07;100314.55;;;9.50;68.74
79368;BME280;68834;53.152;17.962;2023-04-15T01:59:35;100313.39;;;9.47;69.03
79368;BME280;68834;53.152;17.962;2023-04-15T02:02:02;100312.77;;;9.44;69.11
79368;BME280;68834;53.152;17.962;2023-04-15T02:04:29;100310.27;;;9.40;69.17
79368;BME280;68834;53.152;17.962;2023-04-15T02:06:59;100314.70;;;9.37;69.30
79368;BME280;68834;53.152;17.962;2023-04-15T02:09:26;100314.80;;;9.33;69.02
79368;BME280;68834;53.152;17.962;2023-04-15T02:11:52;100317.77;;;9.33;69.54
79368;BME280;68834;53.152;17.962;2023-04-15T02:14:19;100316.70;;;9.34;69.11
79368;BME280;68834;53.152;17.962;2023-04-15T02:16:46;100320.63;;;9.37;69.36
79368;BME280;68834;53.152;17.962;2023-04-15T02:19:14;100321.30;;;9.38;69.40
79368;BME280;68834;53.152;17.962;2023-04-15T02:21:41;100319.54;;;9.38;69.27
79368;BME280;68834;53.152;17.962;2023-04-15T02:24:08;100322.13;;;9.39;69.50
79368;BME280;68834;53.152;17.962;2023-04-15T02:26:34;100320.70;;;9.40;69.29
79368;BME280;68834;53.152;17.962;2023-04-15T02:29:02;100318.05;;;9.41;69.43
79368;BME280;68834;53.152;17.962;2023-04-15T02:31:29;100319.25;;;9.43;69.48
79368;BME280;68834;53.152;17.962;2023-04-15T02:33:56;100321.09;;;9.46;69.63
79368;BME280;68834;53.152;17.962;2023-04-15T02:36:22;100320.61;;;9.51;69.22
79368;BME280;68834;53.152;17.962;2023-04-15T02:38:49;100323.75;;;9.57;69.37
79368;BME280;68834;53.152;17.962;2023-04-15T02:41:16;100326.59;;;9.62;68.99
79368;BME280;68834;53.152;17.962;2023-04-15T02:43:45;100323.68;;;9.65;69.29
79368;BME280;68834;53.152;17.962;2023-04-15T02:46:12;100322.60;;;9.67;69.05
79368;BME280;68834;53.152;17.962;2023-04-15T02:48:40;100323.42;;;9.69;69.00
79368;BME280;68834;53.152;17.962;2023-04-15T02:51:16;100325.09;;;9.71;69.29
79368;BME280;68834;53.152;17.962;2023-04-15T02:53:46;100323.83;;;9.73;69.12
79368;BME280;68834;53.152;17.962;2023-04-15T02:56:13;100322.91;;;9.75;69.07
79368;BME280;68834;53.152;17.962;2023-04-15T02:58:42;100321.76;;;9.78;69.08
79368;BME280;68834;53.152;17.962;2023-04-15T03:01:10;100326.35;;;9.82;68.90
79368;BME280;68834;53.152;17.962;2023-04-15T03:03:37;100323.14;;;9.85;68.83
79368;BME280;68834;53.152;17.962;2023-04-15T03:06:04;100320.98;;;9.87;68.61
79368;BME280;68834;53.152;17.962;2023-04-15T03:08:30;100321.09;;;9.89;68.53
79368;BME280;68834;53.152;17.962;2023-04-15T03:10:58;100322.30;;;9.89;68.73
79368;BME280;68834;53.152;17.962;2023-04-15T03:13:26;100321.44;;;9.89;68.77
79368;BME280;68834;53.152;17.962;2023-04-15T03:15:53;100325.43;;;9.89;68.66
79368;BME280;68834;53.152;17.962;2023-04-15T03:18:21;100325.10;;;9.89;68.50
79368;BME280;68834;53.152;17.962;2023-04-15T03:20:48;100322.96;;;9.91;68.64
79368;BME280;68834;53.152;17.962;2023-04-15T03:23:15;100325.98;;;9.95;68.65
79368;BME280;68834;53.152;17.962;2023-04-15T03:25:43;100323.77;;;9.99;68.55
79368;BME280;68834;53.152;17.962;2023-04-15T03:28:11;100325.81;;;10.01;68.55
79368;BME280;68834;53.152;17.962;2023-04-15T03:30:37;100324.73;;;10.02;68.39
79368;BME280;68834;53.152;17.962;2023-04-15T03:33:04;100321.76;;;10.02;68.31
79368;BME280;68834;53.152;17.962;2023-04-15T03:35:30;100324.39;;;10.02;68.20
79368;BME280;68834;53.152;17.962;2023-04-15T03:37:57;100324.23;;;10.02;68.42
79368;BME280;68834;53.152;17.962;2023-04-15T03:40:23;100325.34;;;10.00;68.53
79368;BME280;68834;53.152;17.962;2023-04-15T03:42:50;100325.48;;;10.01;68.39
79368;BME280;68834;53.152;17.962;2023-04-15T03:45:16;100330.84;;;10.02;68.43
79368;BME280;68834;53.152;17.962;2023-04-15T03:47:43;100328.89;;;10.03;68.45
79368;BME280;68834;53.152;17.962;2023-04-15T03:50:09;100328.37;;;10.03;68.33
79368;BME280;68834;53.152;17.962;2023-04-15T03:52:36;100325.42;;;10.02;68.35
79368;BME280;68834;53.152;17.962;2023-04-15T03:55:04;100325.77;;;10.02;68.62
79368;BME280;68834;53.152;17.962;2023-04-15T03:57:31;100329.85;;;10.01;68.32
79368;BME280;68834;53.152;17.962;2023-04-15T03:59:57;100328.83;;;10.00;68.59
79368;BME280;68834;53.152;17.962;2023-04-15T04:02:24;100332.80;;;10.01;68.37
79368;BME280;68834;53.152;17.962;2023-04-15T04:04:50;100335.67;;;10.04;68.31
79368;BME280;68834;53.152;17.962;2023-04-15T04:07:17;100332.45;;;10.07;68.24
79368;BME280;68834;53.152;17.962;2023-04-15T04:09:44;100334.98;;;10.10;68.25
79368;BME280;68834;53.152;17.962;2023-04-15T04:12:11;100332.85;;;10.11;68.28
79368;BME280;68834;53.152;17.962;2023-04-15T04:14:37;100337.88;;;10.12;68.28
79368;BME280;68834;53.152;17.962;2023-04-15T04:17:04;100335.63;;;10.11;68.25
79368;BME280;68834;53.152;17.962;2023-04-15T04:19:31;100335.64;;;10.11;68.31
79368;BME280;68834;53.152;17.962;2023-04-15T04:21:57;100336.70;;;10.11;68.22
79368;BME280;68834;53.152;17.962;2023-04-15T04:24:24;100338.80;;;10.11;68.20
79368;BME280;68834;53.152;17.962;2023-04-15T04:26:50;100335.79;;;10.12;68.23
79368;BME280;68834;53.152;17.962;2023-04-15T04:29:17;100338.17;;;10.14;68.27
79368;BME280;68834;53.152;17.962;2023-04-15T04:31:44;100335.50;;;10.16;68.13
79368;BME280;68834;53.152;17.962;2023-04-15T04:34:11;100338.61;;;10.17;68.07
79368;BME280;68834;53.152;17.962;2023-04-15T04:36:37;100336.86;;;10.17;68.17
79368;BME280;68834;53.152;17.962;2023-04-15T04:39:04;100335.18;;;10.15;68.40
79368;BME280;68834;53.152;17.962;2023-04-15T04:41:30;100338.54;;;10.14;68.29
79368;BME280;68834;53.152;17.962;2023-04-15T04:43:58;100340.60;;;10.15;68.24
79368;BME280;68834;53.152;17.962;2023-04-15T04:46:27;100341.60;;;10.16;68.15
79368;BME280;68834;53.152;17.962;2023-04-15T04:48:54;100338.41;;;10.18;68.27
79368;BME280;68834;53.152;17.962;2023-04-15T04:51:21;100338.54;;;10.19;68.35
79368;BME280;68834;53.152;17.962;2023-04-15T04:53:47;100336.98;;;10.19;68.20
79368;BME280;68834;53.152;17.962;2023-04-15T04:56:14;100341.48;;;10.20;68.32
79368;BME280;68834;53.152;17.962;2023-04-15T04:58:40;100339.40;;;10.19;68.24
79368;BME280;68834;53.152;17.962;2023-04-15T05:01:07;100339.66;;;10.23;68.36
79368;BME280;68834;53.152;17.962;2023-04-15T05:03:34;100338.21;;;10.25;68.07
79368;BME280;68834;53.152;17.962;2023-04-15T05:06:01;100342.85;;;10.28;68.21
79368;BME280;68834;53.152;17.962;2023-04-15T05:08:31;100344.90;;;10.29;68.15
79368;BME280;68834;53.152;17.962;2023-04-15T05:10:58;100343.85;;;10.30;68.16
79368;BME280;68834;53.152;17.962;2023-04-15T05:13:24;100341.40;;;10.30;68.26
79368;BME280;68834;53.152;17.962;2023-04-15T05:15:51;100345.77;;;10.30;68.36
79368;BME280;68834;53.152;17.962;2023-04-15T05:18:18;100345.05;;;10.30;68.16
79368;BME280;68834;53.152;17.962;2023-04-15T05:20:45;100342.33;;;10.34;68.15
79368;BME280;68834;53.152;17.962;2023-04-15T05:23:12;100347.27;;;10.38;68.09
79368;BME280;68834;53.152;17.962;2023-04-15T05:25:39;100348.78;;;10.40;68.10
79368;BME280;68834;53.152;17.962;2023-04-15T05:28:05;100350.80;;;10.42;67.99
79368;BME280;68834;53.152;17.962;2023-04-15T05:30:32;100349.74;;;10.43;68.05
79368;BME280;68834;53.152;17.962;2023-04-15T05:32:59;100353.50;;;10.40;68.11
79368;BME280;68834;53.152;17.962;2023-04-15T05:35:26;100353.21;;;10.38;68.12
79368;BME280;68834;53.152;17.962;2023-04-15T05:37:53;100355.57;;;10.35;68.37
79368;BME280;68834;53.152;17.962;2023-04-15T05:40:19;100354.34;;;10.35;68.41
79368;BME280;68834;53.152;17.962;2023-04-15T05:42:46;100352.73;;;10.36;68.47
79368;BME280;68834;53.152;17.962;2023-04-15T05:45:12;100358.34;;;10.36;68.42
79368;BME280;68834;53.152;17.962;2023-04-15T05:47:39;100357.82;;;10.35;68.64
79368;BME280;68834;53.152;17.962;2023-04-15T05:50:06;100359.64;;;10.34;68.52
79368;BME280;68834;53.152;17.962;2023-04-15T05:52:32;100361.59;;;10.32;68.92
79368;BME280;68834;53.152;17.962;2023-04-15T05:54:59;100357.48;;;10.30;69.21
79368;BME280;68834;53.152;17.962;2023-04-15T05:57:26;100357.69;;;10.28;69.30
79368;BME280;68834;53.152;17.962;2023-04-15T05:59:52;100365.52;;;10.29;69.33
79368;BME280;68834;53.152;17.962;2023-04-15T06:02:19;100368.34;;;10.28;69.57
79368;BME280;68834;53.152;17.962;2023-04-15T06:04:46;100369.60;;;10.27;69.72
79368;BME280;68834;53.152;17.962;2023-04-15T06:07:13;100371.20;;;10.26;70.11
79368;BME280;68834;53.152;17.962;2023-04-15T06:09:39;100374.92;;;10.23;70.50
79368;BME280;68834;53.152;17.962;2023-04-15T06:12:06;100376.32;;;10.24;70.50
79368;BME280;68834;53.152;17.962;2023-04-15T06:14:37;100375.82;;;10.23;71.49
79368;BME280;68834;53.152;17.962;2023-04-15T06:17:06;100376.14;;;10.17;72.19
79368;BME280;68834;53.152;17.962;2023-04-15T06:19:33;100379.45;;;10.12;72.66
79368;BME280;68834;53.152;17.962;2023-04-15T06:22:00;100383.43;;;10.07;72.65
79368;BME280;68834;53.152;17.962;2023-04-15T06:24:27;100385.73;;;10.06;73.13
79368;BME280;68834;53.152;17.962;2023-04-15T06:26:54;100387.66;;;10.05;73.12
79368;BME280;68834;53.152;17.962;2023-04-15T06:29:21;100392.83;;;10.02;74.06
79368;BME280;68834;53.152;17.962;2023-04-15T06:31:48;100392.98;;;9.97;74.12
79368;BME280;68834;53.152;17.962;2023-04-15T06:34:15;100393.06;;;9.94;74.14
79368;BME280;68834;53.152;17.962;2023-04-15T06:36:42;100390.29;;;9.93;74.22
79368;BME280;68834;53.152;17.962;2023-04-15T06:39:08;100391.48;;;9.94;74.66
79368;BME280;68834;53.152;17.962;2023-04-15T06:41:35;100396.33;;;9.96;74.48
79368;BME280;68834;53.152;17.962;2023-04-15T06:44:02;100396.62;;;9.98;74.77
79368;BME280;68834;53.152;17.962;2023-04-15T06:46:29;100399.60;;;9.98;75.25
79368;BME280;68834;53.152;17.962;2023-04-15T06:48:56;100397.02;;;9.95;75.46
79368;BME280;68834;53.152;17.962;2023-04-15T06:51:22;100399.90;;;9.92;75.54
79368;BME280;68834;53.152;17.962;2023-04-15T06:53:49;100402.24;;;9.90;75.84
79368;BME280;68834;53.152;17.962;2023-04-15T06:56:16;100401.84;;;9.86;76.15
79368;BME280;68834;53.152;17.962;2023-04-15T06:58:42;100404.64;;;9.85;75.76
79368;BME280;68834;53.152;17.962;2023-04-15T07:01:09;100406.54;;;9.86;75.94
79368;BME280;68834;53.152;17.962;2023-04-15T07:03:35;100408.91;;;9.88;76.00
79368;BME280;68834;53.152;17.962;2023-04-15T07:06:02;100409.18;;;9.92;76.13
79368;BME280;68834;53.152;17.962;2023-04-15T07:08:32;100412.26;;;9.94;76.01
79368;BME280;68834;53.152;17.962;2023-04-15T07:11:00;100413.95;;;9.96;76.03
79368;BME280;68834;53.152;17.962;2023-04-15T07:13:29;100417.83;;;9.95;76.61
79368;BME280;68834;53.152;17.962;2023-04-15T07:15:55;100416.54;;;9.91;76.49
79368;BME280;68834;53.152;17.962;2023-04-15T07:18:22;100417.50;;;9.87;76.41
79368;BME280;68834;53.152;17.962;2023-04-15T07:20:49;100417.15;;;9.87;76.44
79368;BME280;68834;53.152;17.962;2023-04-15T07:23:15;100421.45;;;9.89;76.66
79368;BME280;68834;53.152;17.962;2023-04-15T07:25:42;100421.48;;;9.88;76.77
79368;BME280;68834;53.152;17.962;2023-04-15T07:28:09;100424.64;;;9.88;76.63
79368;BME280;68834;53.152;17.962;2023-04-15T07:30:36;100425.13;;;9.89;77.03
79368;BME280;68834;53.152;17.962;2023-04-15T07:33:02;100428.13;;;9.88;76.90
79368;BME280;68834;53.152;17.962;2023-04-15T07:35:29;100425.80;;;9.90;76.93
79368;BME280;68834;53.152;17.962;2023-04-15T07:37:56;100425.02;;;9.94;77.06
79368;BME280;68834;53.152;17.962;2023-04-15T07:40:23;100424.77;;;9.97;77.26
79368;BME280;68834;53.152;17.962;2023-04-15T07:42:49;100425.05;;;9.98;77.15
79368;BME280;68834;53.152;17.962;2023-04-15T07:45:16;100426.93;;;10.00;77.31
79368;BME280;68834;53.152;17.962;2023-04-15T07:47:43;100430.88;;;10.02;77.21
79368;BME280;68834;53.152;17.962;2023-04-15T07:50:09;100436.96;;;10.03;77.47
79368;BME280;68834;53.152;17.962;2023-04-15T07:52:40;100434.36;;;10.03;77.66
79368;BME280;68834;53.152;17.962;2023-04-15T07:55:07;100433.36;;;10.01;77.68
79368;BME280;68834;53.152;17.962;2023-04-15T07:57:35;100431.58;;;10.02;77.79
79368;BME280;68834;53.152;17.962;2023-04-15T08:00:03;100431.21;;;10.03;77.78
79368;BME280;68834;53.152;17.962;2023-04-15T08:02:39;100437.95;;;10.06;77.53
79368;BME280;68834;53.152;17.962;2023-04-15T08:05:07;100436.89;;;10.06;77.91
79368;BME280;68834;53.152;17.962;2023-04-15T08:07:35;100438.52;;;10.04;77.91
79368;BME280;68834;53.152;17.962;2023-04-15T08:10:04;100440.42;;;10.05;77.92
79368;BME280;68834;53.152;17.962;2023-04-15T08:12:31;100442.29;;;10.07;77.90
79368;BME280;68834;53.152;17.962;2023-04-15T08:14:58;100446.30;;;10.13;77.85
79368;BME280;68834;53.152;17.962;2023-04-15T08:17:24;100446.91;;;10.16;77.98
79368;BME280;68834;53.152;17.962;2023-04-15T08:19:51;100448.08;;;10.18;77.97
79368;BME280;68834;53.152;17.962;2023-04-15T08:22:19;100449.39;;;10.21;77.98
79368;BME280;68834;53.152;17.962;2023-04-15T08:24:45;100451.58;;;10.24;78.06
79368;BME280;68834;53.152;17.962;2023-04-15T08:27:12;100450.80;;;10.27;77.70
79368;BME280;68834;53.152;17.962;2023-04-15T08:29:39;100455.87;;;10.34;77.62
79368;BME280;68834;53.152;17.962;2023-04-15T08:32:06;100454.70;;;10.39;77.47
79368;BME280;68834;53.152;17.962;2023-04-15T08:34:33;100454.06;;;10.42;77.63
79368;BME280;68834;53.152;17.962;2023-04-15T08:37:00;100453.98;;;10.45;77.44
79368;BME280;68834;53.152;17.962;2023-04-15T08:39:27;100453.40;;;10.47;77.50
79368;BME280;68834;53.152;17.962;2023-04-15T08:42:01;100453.83;;;10.50;77.39
79368;BME280;68834;53.152;17.962;2023-04-15T08:44:29;100453.64;;;10.56;77.29
79368;BME280;68834;53.152;17.962;2023-04-15T08:47:01;100452.58;;;10.63;77.20
79368;BME280;68834;53.152;17.962;2023-04-15T08:49:29;100456.98;;;10.68;77.25
79368;BME280;68834;53.152;17.962;2023-04-15T08:51:58;100458.48;;;10.70;77.14
79368;BME280;68834;53.152;17.962;2023-04-15T08:54:26;100455.55;;;10.69;77.12
79368;BME280;68834;53.152;17.962;2023-04-15T08:56:53;100460.53;;;10.66;77.00
79368;BME280;68834;53.152;17.962;2023-04-15T08:59:20;100456.95;;;10.64;77.09
79368;BME280;68834;53.152;17.962;2023-04-15T09:01:48;100462.04;;;10.62;77.18
79368;BME280;68834;53.152;17.962;2023-04-15T09:04:16;100462.63;;;10.66;77.08
79368;BME280;68834;53.152;17.962;2023-04-15T09:06:43;100464.14;;;10.73;77.07
79368;BME280;68834;53.152;17.962;2023-04-15T09:09:11;100464.41;;;10.77;77.03
79368;BME280;68834;53.152;17.962;2023-04-15T09:11:40;100460.31;;;10.79;76.98
79368;BME280;68834;53.152;17.962;2023-04-15T09:14:06;100460.84;;;10.79;77.08
79368;BME280;68834;53.152;17.962;2023-04-15T09:16:56;100462.81;;;10.77;77.18
79368;BME280;68834;53.152;17.962;2023-04-15T09:19:24;100466.87;;;10.76;77.21
79368;BME280;68834;53.152;17.962;2023-04-15T09:21:55;100465.25;;;10.77;77.24
79368;BME280;68834;53.152;17.962;2023-04-15T09:24:23;100463.17;;;10.82;77.10
79368;BME280;68834;53.152;17.962;2023-04-15T09:26:53;100460.54;;;10.89;77.06
79368;BME280;68834;53.152;17.962;2023-04-15T09:29:24;100462.05;;;10.91;77.09
79368;BME280;68834;53.152;17.962;2023-04-15T09:31:52;100461.10;;;10.93;77.30
79368;BME280;68834;53.152;17.962;2023-04-15T09:34:19;100461.25;;;10.94;77.17
79368;BME280;68834;53.152;17.962;2023-04-15T09:36:54;100462.84;;;10.94;77.13
79368;BME280;68834;53.152;17.962;2023-04-15T09:39:21;100458.97;;;10.95;77.07
79368;BME280;68834;53.152;17.962;2023-04-15T09:42:05;100460.33;;;11.01;76.96
79368;BME280;68834;53.152;17.962;2023-04-15T09:44:32;100462.05;;;11.07;76.82
79368;BME280;68834;53.152;17.962;2023-04-15T09:46:59;100463.80;;;11.13;76.69
79368;BME280;68834;53.152;17.962;2023-04-15T09:49:26;100468.05;;;11.22;76.82
79368;BME280;68834;53.152;17.962;2023-04-15T09:52:00;100466.95;;;11.29;76.57
79368;BME280;68834;53.152;17.962;2023-04-15T09:54:36;100467.94;;;11.37;76.30
79368;BME280;68834;53.152;17.962;2023-04-15T09:57:07;100470.15;;;11.44;76.32
79368;BME280;68834;53.152;17.962;2023-04-15T09:59:35;100470.89;;;11.42;76.03
79368;BME280;68834;53.152;17.962;2023-04-15T10:02:03;100475.68;;;11.46;76.00
79368;BME280;68834;53.152;17.962;2023-04-15T10:04:34;100472.17;;;11.52;76.08
79368;BME280;68834;53.152;17.962;2023-04-15T10:07:03;100469.48;;;11.58;75.67
79368;BME280;68834;53.152;17.962;2023-04-15T10:09:31;100471.38;;;11.65;75.95
79368;BME280;68834;53.152;17.962;2023-04-15T10:11:59;100469.55;;;11.78;75.69
79368;BME280;68834;53.152;17.962;2023-04-15T10:14:27;100468.07;;;11.95;75.21
79368;BME280;68834;53.152;17.962;2023-04-15T10:17:00;100466.95;;;12.22;75.24
79368;BME280;68834;53.152;17.962;2023-04-15T10:19:30;100468.52;;;12.41;74.59
79368;BME280;68834;53.152;17.962;2023-04-15T10:21:58;100466.20;;;12.48;73.85
79368;BME280;68834;53.152;17.962;2023-04-15T10:24:25;100472.27;;;12.49;73.76
79368;BME280;68834;53.152;17.962;2023-04-15T10:26:53;100475.45;;;12.48;73.79
79368;BME280;68834;53.152;17.962;2023-04-15T10:29:22;100474.00;;;12.50;73.57
79368;BME280;68834;53.152;17.962;2023-04-15T10:31:52;100474.10;;;12.42;73.23
79368;BME280;68834;53.152;17.962;2023-04-15T10:34:20;100474.46;;;12.33;73.00
79368;BME280;68834;53.152;17.962;2023-04-15T10:36:47;100474.96;;;12.18;73.05
79368;BME280;68834;53.152;17.962;2023-04-15T10:42:07;100482.25;;;11.96;73.31
79368;BME280;68834;53.152;17.962;2023-04-15T10:44:36;100479.54;;;11.89;74.16
79368;BME280;68834;53.152;17.962;2023-04-15T10:47:09;100479.09;;;11.80;74.06
79368;BME280;68834;53.152;17.962;2023-04-15T10:52:13;100481.74;;;11.74;74.52
79368;BME280;68834;53.152;17.962;2023-04-15T10:54:40;100480.89;;;11.68;74.55
79368;BME280;68834;53.152;17.962;2023-04-15T10:57:13;100481.27;;;11.67;74.93
79368;BME280;68834;53.152;17.962;2023-04-15T11:00:18;100482.27;;;11.73;74.50
79368;BME280;68834;53.152;17.962;2023-04-15T11:02:55;100484.92;;;11.84;74.55
79368;BME280;68834;53.152;17.962;2023-04-15T11:08:09;100484.67;;;12.16;74.53
79368;BME280;68834;53.152;17.962;2023-04-15T11:13:06;100493.27;;;12.41;74.17
79368;BME280;68834;53.152;17.962;2023-04-15T11:15:44;100493.59;;;12.41;74.29
79368;BME280;68834;53.152;17.962;2023-04-15T11:18:21;100494.38;;;12.39;74.52
79368;BME280;68834;53.152;17.962;2023-04-15T11:20:53;100491.52;;;12.31;73.94
79368;BME280;68834;53.152;17.962;2023-04-15T11:25:55;100493.96;;;12.07;73.92
79368;BME280;68834;53.152;17.962;2023-04-15T11:28:27;100497.79;;;11.92;74.54
79368;BME280;68834;53.152;17.962;2023-04-15T11:30:54;100499.20;;;11.87;75.09
79368;BME280;68834;53.152;17.962;2023-04-15T11:33:22;100503.27;;;11.86;74.84
79368;BME280;68834;53.152;17.962;2023-04-15T11:35:52;100506.95;;;11.86;74.81
79368;BME280;68834;53.152;17.962;2023-04-15T11:38:20;100506.06;;;11.80;74.83
79368;BME280;68834;53.152;17.962;2023-04-15T11:40:49;100510.12;;;11.74;75.04
79368;BME280;68834;53.152;17.962;2023-04-15T11:43:18;100513.05;;;11.70;75.53
79368;BME280;68834;53.152;17.962;2023-04-15T11:45:51;100511.59;;;11.66;75.55
79368;BME280;68834;53.152;17.962;2023-04-15T11:48:21;100507.66;;;11.64;75.25
79368;BME280;68834;53.152;17.962;2023-04-15T11:50:53;100509.15;;;11.66;75.57
79368;BME280;68834;53.152;17.962;2023-04-15T11:53:20;100514.80;;;11.69;75.46
79368;BME280;68834;53.152;17.962;2023-04-15T11:55:49;100515.88;;;11.69;75.15
79368;BME280;68834;53.152;17.962;2023-04-15T11:58:19;100511.33;;;11.69;75.43
79368;BME280;68834;53.152;17.962;2023-04-15T12:03:22;100518.91;;;11.73;75.60
79368;BME280;68834;53.152;17.962;2023-04-15T12:06:05;100518.98;;;11.75;75.63
79368;BME280;68834;53.152;17.962;2023-04-15T12:16:52;100523.38;;;11.65;75.63
79368;BME280;68834;53.152;17.962;2023-04-15T12:19:28;100524.08;;;11.65;75.82
79368;BME280;68834;53.152;17.962;2023-04-15T12:22:00;100523.31;;;11.67;75.85
79368;BME280;68834;53.152;17.962;2023-04-15T12:24:27;100525.20;;;11.68;75.89
79368;BME280;68834;53.152;17.962;2023-04-15T12:26:57;100527.11;;;11.63;75.45
79368;BME280;68834;53.152;17.962;2023-04-15T12:29:28;100529.54;;;11.64;75.49
79368;BME280;68834;53.152;17.962;2023-04-15T12:31:55;100532.08;;;11.61;75.69
79368;BME280;68834;53.152;17.962;2023-04-15T12:34:27;100532.13;;;11.60;75.58
79368;BME280;68834;53.152;17.962;2023-04-15T12:36:55;100540.13;;;11.61;75.77
79368;BME280;68834;53.152;17.962;2023-04-15T12:39:30;100536.72;;;11.63;75.69
79368;BME280;68834;53.152;17.962;2023-04-15T12:41:58;100537.79;;;11.63;75.72
79368;BME280;68834;53.152;17.962;2023-04-15T12:44:25;100535.02;;;11.67;75.61
79368;BME280;68834;53.152;17.962;2023-04-15T12:46:52;100536.08;;;11.72;75.95
79368;BME280;68834;53.152;17.962;2023-04-15T12:49:20;100534.80;;;11.79;75.60
79368;BME280;68834;53.152;17.962;2023-04-15T12:51:47;100538.34;;;11.84;75.57
79368;BME280;68834;53.152;17.962;2023-04-15T12:54:15;100537.46;;;11.84;75.61
79368;BME280;68834;53.152;17.962;2023-04-15T12:56:47;100540.33;;;11.88;75.25
79368;BME280;68834;53.152;17.962;2023-04-15T12:59:14;100540.11;;;11.94;75.31
79368;BME280;68834;53.152;17.962;2023-04-15T13:01:43;100541.02;;;11.98;75.07
79368;BME280;68834;53.152;17.962;2023-04-15T13:04:10;100540.34;;;12.03;75.42
79368;BME280;68834;53.152;17.962;2023-04-15T13:06:36;100543.66;;;12.08;75.70
79368;BME280;68834;53.152;17.962;2023-04-15T13:09:04;100542.19;;;12.06;74.98
79368;BME280;68834;53.152;17.962;2023-04-15T13:11:31;100544.60;;;12.06;75.05